sensor_id;sensor_type;location;lat;lon;timestamp;temperature;humidity
54431;DHT22;40342;52.998;5.862;2022-11-20T00:01:18;-0.70;99.90
54431;DHT22;40342;52.998;5.862;2022-11-20T00:03:45;-0.70;99.90
54431;DHT22;40342;52.998;5.862;2022-11-20T00:06:13;-0.60;99.90
54431;DHT22;40342;52.998;5.862;2022-11-20T00:08:39;-0.60;99.90
54431;DHT22;40342;52.998;5.862;2022-11-20T00:11:06;-0.60;99.90
54431;DHT22;40342;52.998;5.862;2022-11-20T00:13:33;-0.60;99.90
54431;DHT22;40342;52.998;5.862;2022-11-20T00:16:00;-0.60;99.90
54431;DHT22;40342;52.998;5.862;2022-11-20T00:18:27;-0.60;99.90
54431;DHT22;40342;52.998;5.862;2022-11-20T00:20:52;-0.60;99.90
54431;DHT22;40342;52.998;5.862;2022-11-20T00:23:18;-0.60;99.90
54431;DHT22;40342;52.998;5.862;2022-11-20T00:25:44;-0.60;99.90
54431;DHT22;40342;52.998;5.862;2022-11-20T00:28:09;-0.60;99.90
54431;DHT22;40342;52.998;5.862;2022-11-20T00:30:35;-0.60;99.90
54431;DHT22;40342;52.998;5.862;2022-11-20T00:33:01;-0.50;99.90
54431;DHT22;40342;52.998;5.862;2022-11-20T00:35:26;-0.50;99.90
54431;DHT22;40342;52.998;5.862;2022-11-20T00:37:52;-0.50;99.90
54431;DHT22;40342;52.998;5.862;2022-11-20T00:40:17;-0.50;99.90
54431;DHT22;40342;52.998;5.862;2022-11-20T00:42:43;-0.50;99.90
54431;DHT22;40342;52.998;5.862;2022-11-20T00:45:08;-0.50;99.90
54431;DHT22;40342;52.998;5.862;2022-11-20T00:47:34;-0.50;99.90
54431;DHT22;40342;52.998;5.862;2022-11-20T00:49:59;-0.50;99.90
54431;DHT22;40342;52.998;5.862;2022-11-20T00:52:25;-0.50;99.90
54431;DHT22;40342;52.998;5.862;2022-11-20T00:54:50;-0.50;99.90
54431;DHT22;40342;52.998;5.862;2022-11-20T00:57:16;-0.40;99.90
54431;DHT22;40342;52.998;5.862;2022-11-20T00:59:41;-0.40;99.90
54431;DHT22;40342;52.998;5.862;2022-11-20T01:02:07;-0.40;99.90
54431;DHT22;40342;52.998;5.862;2022-11-20T01:04:32;-0.50;99.90
54431;DHT22;40342;52.998;5.862;2022-11-20T01:06:58;-0.40;99.90
54431;DHT22;40342;52.998;5.862;2022-11-20T01:09:24;-0.50;99.90
54431;DHT22;40342;52.998;5.862;2022-11-20T01:11:49;-0.50;99.90
54431;DHT22;40342;52.998;5.862;2022-11-20T01:14:17;-0.40;99.90
54431;DHT22;40342;52.998;5.862;2022-11-20T01:16:49;-0.50;99.90
54431;DHT22;40342;52.998;5.862;2022-11-20T01:19:20;-0.50;99.90
54431;DHT22;40342;52.998;5.862;2022-11-20T01:21:48;-0.50;99.90
54431;DHT22;40342;52.998;5.862;2022-11-20T01:24:16;-0.50;99.90
54431;DHT22;40342;52.998;5.862;2022-11-20T01:26:44;-0.50;99.90
54431;DHT22;40342;52.998;5.862;2022-11-20T01:29:14;-0.60;99.90
54431;DHT22;40342;52.998;5.862;2022-11-20T01:31:41;-0.60;99.90
54431;DHT22;40342;52.998;5.862;2022-11-20T01:34:10;-0.50;99.90
54431;DHT22;40342;52.998;5.862;2022-11-20T01:36:37;-0.50;99.90
54431;DHT22;40342;52.998;5.862;2022-11-20T01:39:05;-0.50;99.90
54431;DHT22;40342;52.998;5.862;2022-11-20T01:41:33;-0.50;99.90
54431;DHT22;40342;52.998;5.862;2022-11-20T01:44:21;-0.50;99.90
54431;DHT22;40342;52.998;5.862;2022-11-20T01:46:59;-0.50;99.90
54431;DHT22;40342;52.998;5.862;2022-11-20T01:49:34;-0.50;99.90
54431;DHT22;40342;52.998;5.862;2022-11-20T01:52:06;-0.50;99.90
54431;DHT22;40342;52.998;5.862;2022-11-20T01:54:51;-0.50;99.90
54431;DHT22;40342;52.998;5.862;2022-11-20T01:57:19;-0.40;99.90
54431;DHT22;40342;52.998;5.862;2022-11-20T02:00:06;-0.50;99.90
54431;DHT22;40342;52.998;5.862;2022-11-20T02:02:33;-0.40;99.90
54431;DHT22;40342;52.998;5.862;2022-11-20T02:05:04;-0.50;99.90
54431;DHT22;40342;52.998;5.862;2022-11-20T02:07:35;-0.50;99.90
54431;DHT22;40342;52.998;5.862;2022-11-20T02:10:01;-0.50;99.90
54431;DHT22;40342;52.998;5.862;2022-11-20T02:12:27;-0.50;99.90
54431;DHT22;40342;52.998;5.862;2022-11-20T02:15:11;-0.50;99.90
54431;DHT22;40342;52.998;5.862;2022-11-20T02:17:37;-0.50;99.90
54431;DHT22;40342;52.998;5.862;2022-11-20T02:20:03;-0.40;99.90
54431;DHT22;40342;52.998;5.862;2022-11-20T02:22:35;-0.40;99.90
54431;DHT22;40342;52.998;5.862;2022-11-20T02:25:04;-0.40;99.90
54431;DHT22;40342;52.998;5.862;2022-11-20T02:27:32;-0.40;99.90
54431;DHT22;40342;52.998;5.862;2022-11-20T02:30:00;-0.40;99.90
54431;DHT22;40342;52.998;5.862;2022-11-20T02:32:32;-0.40;99.90
54431;DHT22;40342;52.998;5.862;2022-11-20T02:35:05;-0.40;99.90
54431;DHT22;40342;52.998;5.862;2022-11-20T02:37:34;-0.40;99.90
54431;DHT22;40342;52.998;5.862;2022-11-20T02:40:00;-0.40;99.90
54431;DHT22;40342;52.998;5.862;2022-11-20T02:42:26;-0.30;99.90
54431;DHT22;40342;52.998;5.862;2022-11-20T02:44:51;-0.40;99.90
54431;DHT22;40342;52.998;5.862;2022-11-20T02:47:17;-0.40;99.90
54431;DHT22;40342;52.998;5.862;2022-11-20T02:49:42;-0.40;99.90
54431;DHT22;40342;52.998;5.862;2022-11-20T02:52:08;-0.40;99.90
54431;DHT22;40342;52.998;5.862;2022-11-20T02:54:33;-0.30;99.90
54431;DHT22;40342;52.998;5.862;2022-11-20T02:56:59;-0.30;99.90
54431;DHT22;40342;52.998;5.862;2022-11-20T02:59:25;-0.30;99.90
54431;DHT22;40342;52.998;5.862;2022-11-20T03:01:50;-0.40;99.90
54431;DHT22;40342;52.998;5.862;2022-11-20T03:04:16;-0.40;99.90
54431;DHT22;40342;52.998;5.862;2022-11-20T03:06:41;-0.40;99.90
54431;DHT22;40342;52.998;5.862;2022-11-20T03:09:07;-0.40;99.90
54431;DHT22;40342;52.998;5.862;2022-11-20T03:11:32;-0.40;99.90
54431;DHT22;40342;52.998;5.862;2022-11-20T03:14:02;-0.40;99.90
54431;DHT22;40342;52.998;5.862;2022-11-20T03:16:27;-0.40;99.90
54431;DHT22;40342;52.998;5.862;2022-11-20T03:18:53;-0.40;99.90
54431;DHT22;40342;52.998;5.862;2022-11-20T03:21:19;-0.40;99.90
54431;DHT22;40342;52.998;5.862;2022-11-20T03:23:44;-0.40;99.90
54431;DHT22;40342;52.998;5.862;2022-11-20T03:26:15;-0.50;99.90
54431;DHT22;40342;52.998;5.862;2022-11-20T03:28:45;-0.50;99.90
54431;DHT22;40342;52.998;5.862;2022-11-20T03:31:12;-0.50;99.90
54431;DHT22;40342;52.998;5.862;2022-11-20T03:33:39;-0.50;99.90
54431;DHT22;40342;52.998;5.862;2022-11-20T03:36:08;-0.50;99.90
54431;DHT22;40342;52.998;5.862;2022-11-20T03:38:34;-0.50;99.90
54431;DHT22;40342;52.998;5.862;2022-11-20T03:41:05;-0.50;99.90
54431;DHT22;40342;52.998;5.862;2022-11-20T03:43:32;-0.50;99.90
54431;DHT22;40342;52.998;5.862;2022-11-20T03:45:58;-0.50;99.90
54431;DHT22;40342;52.998;5.862;2022-11-20T03:48:24;-0.60;99.90
54431;DHT22;40342;52.998;5.862;2022-11-20T03:50:50;-0.60;99.90
54431;DHT22;40342;52.998;5.862;2022-11-20T03:53:16;-0.70;99.90
54431;DHT22;40342;52.998;5.862;2022-11-20T03:55:42;-0.70;99.90
54431;DHT22;40342;52.998;5.862;2022-11-20T03:58:08;-0.80;99.90
54431;DHT22;40342;52.998;5.862;2022-11-20T04:00:34;-0.80;99.90
54431;DHT22;40342;52.998;5.862;2022-11-20T04:03:00;-0.80;99.90
54431;DHT22;40342;52.998;5.862;2022-11-20T04:05:26;-0.80;99.90
54431;DHT22;40342;52.998;5.862;2022-11-20T04:07:52;-0.80;99.90
54431;DHT22;40342;52.998;5.862;2022-11-20T04:10:17;-0.80;99.90
54431;DHT22;40342;52.998;5.862;2022-11-20T04:12:43;-0.80;99.90
54431;DHT22;40342;52.998;5.862;2022-11-20T04:15:09;-0.80;99.90
54431;DHT22;40342;52.998;5.862;2022-11-20T04:17:34;-0.80;99.90
54431;DHT22;40342;52.998;5.862;2022-11-20T04:20:00;-0.90;99.90
54431;DHT22;40342;52.998;5.862;2022-11-20T04:22:26;-0.90;99.90
54431;DHT22;40342;52.998;5.862;2022-11-20T04:24:51;-0.90;99.90
54431;DHT22;40342;52.998;5.862;2022-11-20T04:27:17;-0.90;99.90
54431;DHT22;40342;52.998;5.862;2022-11-20T04:29:42;-0.90;99.90
54431;DHT22;40342;52.998;5.862;2022-11-20T04:32:08;-0.90;99.90
54431;DHT22;40342;52.998;5.862;2022-11-20T04:34:34;-0.90;99.90
54431;DHT22;40342;52.998;5.862;2022-11-20T04:37:00;-0.90;99.90
54431;DHT22;40342;52.998;5.862;2022-11-20T04:39:25;-0.90;99.90
54431;DHT22;40342;52.998;5.862;2022-11-20T04:41:51;-0.90;99.90
54431;DHT22;40342;52.998;5.862;2022-11-20T04:44:36;-0.90;99.90
54431;DHT22;40342;52.998;5.862;2022-11-20T04:47:02;-1.00;99.90
54431;DHT22;40342;52.998;5.862;2022-11-20T04:49:27;-1.00;99.90
54431;DHT22;40342;52.998;5.862;2022-11-20T04:51:53;-1.00;99.90
54431;DHT22;40342;52.998;5.862;2022-11-20T04:54:19;-1.10;99.90
54431;DHT22;40342;52.998;5.862;2022-11-20T04:56:47;-1.00;99.90
54431;DHT22;40342;52.998;5.862;2022-11-20T04:59:13;-1.10;99.90
54431;DHT22;40342;52.998;5.862;2022-11-20T05:01:39;-1.10;99.90
54431;DHT22;40342;52.998;5.862;2022-11-20T05:04:04;-1.10;99.90
54431;DHT22;40342;52.998;5.862;2022-11-20T05:06:31;-1.10;99.90
54431;DHT22;40342;52.998;5.862;2022-11-20T05:08:56;-1.10;99.90
54431;DHT22;40342;52.998;5.862;2022-11-20T05:11:22;-1.10;99.90
54431;DHT22;40342;52.998;5.862;2022-11-20T05:13:49;-1.10;99.90
54431;DHT22;40342;52.998;5.862;2022-11-20T05:16:17;-1.10;99.90
54431;DHT22;40342;52.998;5.862;2022-11-20T05:18:43;-1.10;99.90
54431;DHT22;40342;52.998;5.862;2022-11-20T05:21:10;-1.10;99.90
54431;DHT22;40342;52.998;5.862;2022-11-20T05:23:36;-1.20;99.90
54431;DHT22;40342;52.998;5.862;2022-11-20T05:26:02;-1.30;99.90
54431;DHT22;40342;52.998;5.862;2022-11-20T05:28:30;-1.30;99.90
54431;DHT22;40342;52.998;5.862;2022-11-20T05:30:56;-1.40;99.90
54431;DHT22;40342;52.998;5.862;2022-11-20T05:33:21;-1.40;99.90
54431;DHT22;40342;52.998;5.862;2022-11-20T05:35:47;-1.50;99.90
54431;DHT22;40342;52.998;5.862;2022-11-20T05:38:14;-1.50;99.90
54431;DHT22;40342;52.998;5.862;2022-11-20T05:40:39;-1.50;99.90
54431;DHT22;40342;52.998;5.862;2022-11-20T05:43:05;-1.50;99.90
54431;DHT22;40342;52.998;5.862;2022-11-20T05:45:30;-1.50;99.90
54431;DHT22;40342;52.998;5.862;2022-11-20T05:48:00;-1.50;99.90
54431;DHT22;40342;52.998;5.862;2022-11-20T05:50:27;-1.50;99.90
54431;DHT22;40342;52.998;5.862;2022-11-20T05:52:52;-1.50;99.90
54431;DHT22;40342;52.998;5.862;2022-11-20T05:55:18;-1.50;99.90
54431;DHT22;40342;52.998;5.862;2022-11-20T05:57:43;-1.50;99.90
54431;DHT22;40342;52.998;5.862;2022-11-20T06:00:09;-1.50;99.90
54431;DHT22;40342;52.998;5.862;2022-11-20T06:02:35;-1.50;99.90
54431;DHT22;40342;52.998;5.862;2022-11-20T06:05:01;-1.50;99.90
54431;DHT22;40342;52.998;5.862;2022-11-20T06:07:26;-1.50;99.90
54431;DHT22;40342;52.998;5.862;2022-11-20T06:09:52;-1.50;99.90
54431;DHT22;40342;52.998;5.862;2022-11-20T06:12:18;-1.50;99.90
54431;DHT22;40342;52.998;5.862;2022-11-20T06:14:43;-1.50;99.90
54431;DHT22;40342;52.998;5.862;2022-11-20T06:17:09;-1.40;99.90
54431;DHT22;40342;52.998;5.862;2022-11-20T06:19:34;-1.50;99.90
54431;DHT22;40342;52.998;5.862;2022-11-20T06:22:00;-1.50;99.90
54431;DHT22;40342;52.998;5.862;2022-11-20T06:24:26;-1.40;99.90
54431;DHT22;40342;52.998;5.862;2022-11-20T06:26:52;-1.40;99.90
54431;DHT22;40342;52.998;5.862;2022-11-20T06:29:17;-1.40;99.90
54431;DHT22;40342;52.998;5.862;2022-11-20T06:31:43;-1.40;99.90
54431;DHT22;40342;52.998;5.862;2022-11-20T06:34:09;-1.40;99.90
54431;DHT22;40342;52.998;5.862;2022-11-20T06:36:34;-1.40;99.90
54431;DHT22;40342;52.998;5.862;2022-11-20T06:39:00;-1.40;99.90
54431;DHT22;40342;52.998;5.862;2022-11-20T06:41:26;-1.40;99.90
54431;DHT22;40342;52.998;5.862;2022-11-20T06:43:53;-1.40;99.90
54431;DHT22;40342;52.998;5.862;2022-11-20T06:46:20;-1.40;99.90
54431;DHT22;40342;52.998;5.862;2022-11-20T06:48:46;-1.50;99.90
54431;DHT22;40342;52.998;5.862;2022-11-20T06:51:12;-1.40;99.90
54431;DHT22;40342;52.998;5.862;2022-11-20T06:53:38;-1.50;99.90
54431;DHT22;40342;52.998;5.862;2022-11-20T06:56:04;-1.50;99.90
54431;DHT22;40342;52.998;5.862;2022-11-20T06:58:34;-1.40;99.90
54431;DHT22;40342;52.998;5.862;2022-11-20T07:01:01;-1.40;99.90
54431;DHT22;40342;52.998;5.862;2022-11-20T07:03:27;-1.40;99.90
54431;DHT22;40342;52.998;5.862;2022-11-20T07:05:55;-1.40;99.90
54431;DHT22;40342;52.998;5.862;2022-11-20T07:08:21;-1.40;99.90
54431;DHT22;40342;52.998;5.862;2022-11-20T07:10:47;-1.40;99.90
54431;DHT22;40342;52.998;5.862;2022-11-20T07:13:12;-1.40;99.90
54431;DHT22;40342;52.998;5.862;2022-11-20T07:15:38;-1.40;99.90
54431;DHT22;40342;52.998;5.862;2022-11-20T07:18:03;-1.30;99.90
54431;DHT22;40342;52.998;5.862;2022-11-20T07:20:29;-1.40;99.90
54431;DHT22;40342;52.998;5.862;2022-11-20T07:22:58;-1.30;99.90
54431;DHT22;40342;52.998;5.862;2022-11-20T07:25:25;-1.30;99.90
54431;DHT22;40342;52.998;5.862;2022-11-20T07:27:51;-1.40;99.90
54431;DHT22;40342;52.998;5.862;2022-11-20T07:30:17;-1.40;99.90
54431;DHT22;40342;52.998;5.862;2022-11-20T07:32:47;-1.40;99.90
54431;DHT22;40342;52.998;5.862;2022-11-20T07:35:13;-1.30;99.90
54431;DHT22;40342;52.998;5.862;2022-11-20T07:37:38;-1.30;99.90
54431;DHT22;40342;52.998;5.862;2022-11-20T07:40:04;-1.30;99.90
54431;DHT22;40342;52.998;5.862;2022-11-20T07:42:30;-1.30;99.90
54431;DHT22;40342;52.998;5.862;2022-11-20T07:44:58;-1.30;99.90
54431;DHT22;40342;52.998;5.862;2022-11-20T07:47:24;-1.30;99.90
54431;DHT22;40342;52.998;5.862;2022-11-20T07:49:50;-1.30;99.90
54431;DHT22;40342;52.998;5.862;2022-11-20T07:52:15;-1.30;99.90
54431;DHT22;40342;52.998;5.862;2022-11-20T07:54:41;-1.30;99.90
54431;DHT22;40342;52.998;5.862;2022-11-20T07:57:06;-1.40;99.90
54431;DHT22;40342;52.998;5.862;2022-11-20T07:59:32;-1.30;99.90
54431;DHT22;40342;52.998;5.862;2022-11-20T08:01:57;-1.40;99.90
54431;DHT22;40342;52.998;5.862;2022-11-20T08:04:23;-1.40;99.90
54431;DHT22;40342;52.998;5.862;2022-11-20T08:06:49;-1.40;99.90
54431;DHT22;40342;52.998;5.862;2022-11-20T08:09:17;-1.50;99.90
54431;DHT22;40342;52.998;5.862;2022-11-20T08:11:43;-1.50;99.90
54431;DHT22;40342;52.998;5.862;2022-11-20T08:14:27;-1.50;99.90
54431;DHT22;40342;52.998;5.862;2022-11-20T08:16:53;-1.50;99.90
54431;DHT22;40342;52.998;5.862;2022-11-20T08:19:19;-1.50;99.90
54431;DHT22;40342;52.998;5.862;2022-11-20T08:21:44;-1.50;99.90
54431;DHT22;40342;52.998;5.862;2022-11-20T08:24:10;-1.50;99.90
54431;DHT22;40342;52.998;5.862;2022-11-20T08:26:37;-1.40;99.90
54431;DHT22;40342;52.998;5.862;2022-11-20T08:29:04;-1.40;99.90
54431;DHT22;40342;52.998;5.862;2022-11-20T08:31:30;-1.40;99.90
54431;DHT22;40342;52.998;5.862;2022-11-20T08:33:55;-1.40;99.90
54431;DHT22;40342;52.998;5.862;2022-11-20T08:36:22;-1.40;99.90
54431;DHT22;40342;52.998;5.862;2022-11-20T08:38:53;-1.30;99.90
54431;DHT22;40342;52.998;5.862;2022-11-20T08:41:20;-1.30;99.90
54431;DHT22;40342;52.998;5.862;2022-11-20T08:44:01;-1.30;99.90
54431;DHT22;40342;52.998;5.862;2022-11-20T08:46:38;-1.30;99.90
54431;DHT22;40342;52.998;5.862;2022-11-20T08:49:09;-1.20;99.90
54431;DHT22;40342;52.998;5.862;2022-11-20T08:51:36;-1.20;99.90
54431;DHT22;40342;52.998;5.862;2022-11-20T08:54:03;-1.10;99.90
54431;DHT22;40342;52.998;5.862;2022-11-20T08:56:29;-1.10;99.90
54431;DHT22;40342;52.998;5.862;2022-11-20T08:58:54;-1.10;99.90
54431;DHT22;40342;52.998;5.862;2022-11-20T09:01:22;-1.10;99.90
54431;DHT22;40342;52.998;5.862;2022-11-20T09:03:48;-1.00;99.90
54431;DHT22;40342;52.998;5.862;2022-11-20T09:06:14;-1.00;99.90
54431;DHT22;40342;52.998;5.862;2022-11-20T09:08:40;-0.90;99.90
54431;DHT22;40342;52.998;5.862;2022-11-20T09:11:06;-0.80;99.90
54431;DHT22;40342;52.998;5.862;2022-11-20T09:13:33;-0.70;99.90
54431;DHT22;40342;52.998;5.862;2022-11-20T09:16:05;-0.70;99.90
54431;DHT22;40342;52.998;5.862;2022-11-20T09:18:32;-0.70;99.90
54431;DHT22;40342;52.998;5.862;2022-11-20T09:21:02;-0.60;99.90
54431;DHT22;40342;52.998;5.862;2022-11-20T09:23:32;-0.50;99.90
54431;DHT22;40342;52.998;5.862;2022-11-20T09:26:02;-0.50;99.90
54431;DHT22;40342;52.998;5.862;2022-11-20T09:28:28;-0.20;99.90
54431;DHT22;40342;52.998;5.862;2022-11-20T09:30:53;0.00;99.90
54431;DHT22;40342;52.998;5.862;2022-11-20T09:33:19;0.30;99.90
54431;DHT22;40342;52.998;5.862;2022-11-20T09:35:44;0.60;99.90
54431;DHT22;40342;52.998;5.862;2022-11-20T09:38:10;0.70;99.90
54431;DHT22;40342;52.998;5.862;2022-11-20T09:40:39;1.00;99.90
54431;DHT22;40342;52.998;5.862;2022-11-20T09:48:39;1.90;99.90
54431;DHT22;40342;52.998;5.862;2022-11-20T09:51:32;2.20;99.90
54431;DHT22;40342;52.998;5.862;2022-11-20T09:56:41;3.00;99.90
54431;DHT22;40342;52.998;5.862;2022-11-20T10:01:56;3.40;99.90
54431;DHT22;40342;52.998;5.862;2022-11-20T10:04:24;3.60;99.90
54431;DHT22;40342;52.998;5.862;2022-11-20T10:07:11;3.70;99.90
54431;DHT22;40342;52.998;5.862;2022-11-20T10:09:40;3.80;99.90
54431;DHT22;40342;52.998;5.862;2022-11-20T10:17:53;4.10;99.90
54431;DHT22;40342;52.998;5.862;2022-11-20T10:20:29;4.10;99.90
54431;DHT22;40342;52.998;5.862;2022-11-20T10:23:10;4.10;99.90
54431;DHT22;40342;52.998;5.862;2022-11-20T10:26:16;4.10;99.90
54431;DHT22;40342;52.998;5.862;2022-11-20T10:31:24;3.90;99.90
54431;DHT22;40342;52.998;5.862;2022-11-20T10:33:52;3.80;99.90
54431;DHT22;40342;52.998;5.862;2022-11-20T10:36:23;3.80;99.90
54431;DHT22;40342;52.998;5.862;2022-11-20T10:41:29;3.80;99.90
54431;DHT22;40342;52.998;5.862;2022-11-20T10:44:14;3.70;99.90
54431;DHT22;40342;52.998;5.862;2022-11-20T10:47:19;3.50;99.90
54431;DHT22;40342;52.998;5.862;2022-11-20T10:49:49;3.40;99.90
54431;DHT22;40342;52.998;5.862;2022-11-20T10:52:26;3.30;99.90
54431;DHT22;40342;52.998;5.862;2022-11-20T10:55:23;3.20;99.90
54431;DHT22;40342;52.998;5.862;2022-11-20T11:00:38;3.00;99.90
54431;DHT22;40342;52.998;5.862;2022-11-20T11:03:22;2.90;99.90
54431;DHT22;40342;52.998;5.862;2022-11-20T11:05:54;2.80;99.90
54431;DHT22;40342;52.998;5.862;2022-11-20T11:08:22;2.80;99.90
54431;DHT22;40342;52.998;5.862;2022-11-20T11:10:54;2.70;99.90
54431;DHT22;40342;52.998;5.862;2022-11-20T11:13:29;2.60;99.90
54431;DHT22;40342;52.998;5.862;2022-11-20T11:15:55;2.60;99.90
54431;DHT22;40342;52.998;5.862;2022-11-20T11:18:27;2.60;99.90
54431;DHT22;40342;52.998;5.862;2022-11-20T11:20:55;2.60;99.90
54431;DHT22;40342;52.998;5.862;2022-11-20T11:23:36;2.60;99.90
54431;DHT22;40342;52.998;5.862;2022-11-20T11:26:05;2.60;99.90
54431;DHT22;40342;52.998;5.862;2022-11-20T11:28:30;2.60;99.90
54431;DHT22;40342;52.998;5.862;2022-11-20T11:30:57;2.70;99.90
54431;DHT22;40342;52.998;5.862;2022-11-20T11:33:28;2.90;99.90
54431;DHT22;40342;52.998;5.862;2022-11-20T11:35:59;3.00;99.90
54431;DHT22;40342;52.998;5.862;2022-11-20T11:38:34;3.10;99.90
54431;DHT22;40342;52.998;5.862;2022-11-20T11:41:01;3.10;99.90
54431;DHT22;40342;52.998;5.862;2022-11-20T11:43:31;3.10;99.90
54431;DHT22;40342;52.998;5.862;2022-11-20T11:46:32;3.00;99.90
54431;DHT22;40342;52.998;5.862;2022-11-20T11:52:20;2.90;99.90
54431;DHT22;40342;52.998;5.862;2022-11-20T11:54:34;2.90;99.90
54431;DHT22;40342;52.998;5.862;2022-11-20T11:57:11;2.90;99.90
54431;DHT22;40342;52.998;5.862;2022-11-20T11:59:59;2.80;99.90
54431;DHT22;40342;52.998;5.862;2022-11-20T12:02:40;2.80;99.90
54431;DHT22;40342;52.998;5.862;2022-11-20T12:05:23;2.70;99.90
54431;DHT22;40342;52.998;5.862;2022-11-20T12:07:57;2.70;99.90
54431;DHT22;40342;52.998;5.862;2022-11-20T12:10:44;2.70;99.90
54431;DHT22;40342;52.998;5.862;2022-11-20T12:16:15;2.70;99.90
54431;DHT22;40342;52.998;5.862;2022-11-20T12:18:42;2.70;99.90
54431;DHT22;40342;52.998;5.862;2022-11-20T12:21:32;2.70;99.90
54431;DHT22;40342;52.998;5.862;2022-11-20T12:24:10;2.70;99.90
54431;DHT22;40342;52.998;5.862;2022-11-20T12:29:51;2.60;99.90
54431;DHT22;40342;52.998;5.862;2022-11-20T12:32:48;2.60;99.90
54431;DHT22;40342;52.998;5.862;2022-11-20T12:35:30;2.60;99.90
54431;DHT22;40342;52.998;5.862;2022-11-20T12:41:10;2.60;99.90
54431;DHT22;40342;52.998;5.862;2022-11-20T12:44:01;2.50;99.90
54431;DHT22;40342;52.998;5.862;2022-11-20T12:47:01;2.60;99.90
54431;DHT22;40342;52.998;5.862;2022-11-20T12:52:38;2.60;99.90
54431;DHT22;40342;52.998;5.862;2022-11-20T12:55:23;2.50;99.90
54431;DHT22;40342;52.998;5.862;2022-11-20T12:58:05;2.50;99.90
54431;DHT22;40342;52.998;5.862;2022-11-20T13:00:35;2.50;99.90
54431;DHT22;40342;52.998;5.862;2022-11-20T13:03:42;2.50;99.90
54431;DHT22;40342;52.998;5.862;2022-11-20T13:06:17;2.50;99.90
54431;DHT22;40342;52.998;5.862;2022-11-20T13:08:53;2.60;99.90
54431;DHT22;40342;52.998;5.862;2022-11-20T13:17:22;2.60;99.90
54431;DHT22;40342;52.998;5.862;2022-11-20T13:19:55;2.60;99.90
54431;DHT22;40342;52.998;5.862;2022-11-20T13:22:41;2.60;99.90
54431;DHT22;40342;52.998;5.862;2022-11-20T13:25:09;2.60;99.90
54431;DHT22;40342;52.998;5.862;2022-11-20T13:27:35;2.60;99.90
54431;DHT22;40342;52.998;5.862;2022-11-20T13:30:18;2.60;99.90
54431;DHT22;40342;52.998;5.862;2022-11-20T13:32:55;2.50;99.90
54431;DHT22;40342;52.998;5.862;2022-11-20T13:35:30;2.50;99.90
54431;DHT22;40342;52.998;5.862;2022-11-20T13:38:14;2.50;99.90
54431;DHT22;40342;52.998;5.862;2022-11-20T13:41:00;2.50;99.90
54431;DHT22;40342;52.998;5.862;2022-11-20T13:43:47;2.50;99.90
54431;DHT22;40342;52.998;5.862;2022-11-20T13:46:13;2.40;99.90
54431;DHT22;40342;52.998;5.862;2022-11-20T13:48:43;2.40;99.90
54431;DHT22;40342;52.998;5.862;2022-11-20T13:57:06;2.40;99.90
54431;DHT22;40342;52.998;5.862;2022-11-20T14:02:19;2.40;99.90
54431;DHT22;40342;52.998;5.862;2022-11-20T14:04:51;2.40;99.90
54431;DHT22;40342;52.998;5.862;2022-11-20T14:07:19;2.40;99.90
54431;DHT22;40342;52.998;5.862;2022-11-20T14:09:54;2.40;99.90
54431;DHT22;40342;52.998;5.862;2022-11-20T14:12:23;2.40;99.90
54431;DHT22;40342;52.998;5.862;2022-11-20T14:14:53;2.30;99.90
54431;DHT22;40342;52.998;5.862;2022-11-20T14:17:30;2.30;99.90
54431;DHT22;40342;52.998;5.862;2022-11-20T14:20:01;2.30;99.90
54431;DHT22;40342;52.998;5.862;2022-11-20T14:22:27;2.30;99.90
54431;DHT22;40342;52.998;5.862;2022-11-20T14:27:39;2.30;99.90
54431;DHT22;40342;52.998;5.862;2022-11-20T14:30:13;2.30;99.90
54431;DHT22;40342;52.998;5.862;2022-11-20T14:32:39;2.30;99.90
54431;DHT22;40342;52.998;5.862;2022-11-20T14:35:25;2.30;99.90
54431;DHT22;40342;52.998;5.862;2022-11-20T14:37:52;2.30;99.90
54431;DHT22;40342;52.998;5.862;2022-11-20T14:40:32;2.30;99.90
54431;DHT22;40342;52.998;5.862;2022-11-20T14:43:00;2.30;99.90
54431;DHT22;40342;52.998;5.862;2022-11-20T14:45:26;2.30;99.90
54431;DHT22;40342;52.998;5.862;2022-11-20T14:47:55;2.30;99.90
54431;DHT22;40342;52.998;5.862;2022-11-20T14:50:24;2.20;99.90
54431;DHT22;40342;52.998;5.862;2022-11-20T14:53:08;2.20;99.90
54431;DHT22;40342;52.998;5.862;2022-11-20T14:55:36;2.20;99.90
54431;DHT22;40342;52.998;5.862;2022-11-20T14:58:25;2.20;99.90
54431;DHT22;40342;52.998;5.862;2022-11-20T15:01:01;2.20;99.90
54431;DHT22;40342;52.998;5.862;2022-11-20T15:03:39;2.20;99.90
54431;DHT22;40342;52.998;5.862;2022-11-20T15:06:07;2.20;99.90
54431;DHT22;40342;52.998;5.862;2022-11-20T15:08:34;2.20;99.90
54431;DHT22;40342;52.998;5.862;2022-11-20T15:11:00;2.20;99.90
54431;DHT22;40342;52.998;5.862;2022-11-20T15:13:31;2.20;99.90
54431;DHT22;40342;52.998;5.862;2022-11-20T15:15:58;2.20;99.90
54431;DHT22;40342;52.998;5.862;2022-11-20T15:18:45;2.20;99.90
54431;DHT22;40342;52.998;5.862;2022-11-20T15:21:15;2.20;99.90
54431;DHT22;40342;52.998;5.862;2022-11-20T15:23:41;2.20;99.90
54431;DHT22;40342;52.998;5.862;2022-11-20T15:26:08;2.20;99.90
54431;DHT22;40342;52.998;5.862;2022-11-20T15:28:45;2.20;99.90
54431;DHT22;40342;52.998;5.862;2022-11-20T15:31:14;2.20;99.90
54431;DHT22;40342;52.998;5.862;2022-11-20T15:33:40;2.10;99.90
54431;DHT22;40342;52.998;5.862;2022-11-20T15:36:06;2.20;99.90
54431;DHT22;40342;52.998;5.862;2022-11-20T15:38:32;2.20;99.90
54431;DHT22;40342;52.998;5.862;2022-11-20T15:40:58;2.20;99.90
54431;DHT22;40342;52.998;5.862;2022-11-20T15:43:23;2.10;99.90
54431;DHT22;40342;52.998;5.862;2022-11-20T15:45:58;2.10;99.90
54431;DHT22;40342;52.998;5.862;2022-11-20T15:48:28;2.10;99.90
54431;DHT22;40342;52.998;5.862;2022-11-20T15:51:17;2.10;99.90
54431;DHT22;40342;52.998;5.862;2022-11-20T15:53:45;2.10;99.90
54431;DHT22;40342;52.998;5.862;2022-11-20T15:56:12;2.10;99.90
54431;DHT22;40342;52.998;5.862;2022-11-20T15:58:38;2.10;99.90
54431;DHT22;40342;52.998;5.862;2022-11-20T16:01:04;2.10;99.90
54431;DHT22;40342;52.998;5.862;2022-11-20T16:03:30;2.10;99.90
54431;DHT22;40342;52.998;5.862;2022-11-20T16:05:55;2.10;99.90
54431;DHT22;40342;52.998;5.862;2022-11-20T16:08:21;2.10;99.90
54431;DHT22;40342;52.998;5.862;2022-11-20T16:10:46;2.10;99.90
54431;DHT22;40342;52.998;5.862;2022-11-20T16:13:15;2.10;99.90
54431;DHT22;40342;52.998;5.862;2022-11-20T16:16:04;2.10;99.90
54431;DHT22;40342;52.998;5.862;2022-11-20T16:18:30;2.10;99.90
54431;DHT22;40342;52.998;5.862;2022-11-20T16:20:57;2.10;99.90
54431;DHT22;40342;52.998;5.862;2022-11-20T16:23:23;2.10;99.90
54431;DHT22;40342;52.998;5.862;2022-11-20T16:25:50;2.10;99.90
54431;DHT22;40342;52.998;5.862;2022-11-20T16:28:16;2.10;99.90
54431;DHT22;40342;52.998;5.862;2022-11-20T16:30:42;2.10;99.90
54431;DHT22;40342;52.998;5.862;2022-11-20T16:33:15;2.10;99.90
54431;DHT22;40342;52.998;5.862;2022-11-20T16:35:42;2.10;99.90
54431;DHT22;40342;52.998;5.862;2022-11-20T16:38:08;2.10;99.90
54431;DHT22;40342;52.998;5.862;2022-11-20T16:40:34;2.10;99.90
54431;DHT22;40342;52.998;5.862;2022-11-20T16:43:10;2.10;99.90
54431;DHT22;40342;52.998;5.862;2022-11-20T16:45:41;2.10;99.90
54431;DHT22;40342;52.998;5.862;2022-11-20T16:48:08;2.00;99.90
54431;DHT22;40342;52.998;5.862;2022-11-20T16:50:36;2.00;99.90